Terminal Aerodrome Forecast
Issued by NWS Cleveland, OH

Home | Current Version | Previous Version | Text Only | Print | Product List | Glossary Off
Versions: 1 2 3 4 5 6 7 8 9 10 11 12 13 14 15 16 17 18

000
FTUS41 KCLE 211820 AAA
TAFTOL
TAF AMD
KTOL 211820Z 2118/2218 23011KT P6SM SCT035 BKN250
     FM212000 24012KT P6SM VCTS BKN035CB OVC120
      TEMPO 2120/2123 VRB30G40KT 1SM -TSRA OVC020CB
     FM220000 23005KT P6SM SCT035 BKN080
      TEMPO 2209/2212 5SM BR
     FM221200 24012KT P6SM VCSH BKN035=

USA.gov is the U.S. government's official web portal to all federal, state and local government web resources and services.